Time;durP1;ratioP1;P1;durP2;ratioP2;P2;SDS_P1;SDS_P2;PMS_P1;PMS_P2;Temp;Humidity;BMP_temperature;BMP_pressure;BME280_temperature;BME280_humidity;BME280_pressure;Samples;Min_cycle;Max_cycle;Signal;HPM_P1;HPM_P2
2024/02/27 00:01:10;;;;;;;29.27;26.17;;;6.20;99.90;;;;;;5019474;28;20641;-55
2024/02/27 00:03:36;;;;;;;31.50;28.10;;;6.20;99.90;;;;;;5016397;28;20516;-55
2024/02/27 00:06:03;;;;;;;33.57;29.70;;;6.20;99.90;;;;;;5018996;28;20186;-46
2024/02/27 00:08:28;;;;;;;31.50;27.43;;;6.20;99.90;;;;;;5017929;28;20224;-55
2024/02/27 00:10:54;;;;;;;29.10;26.07;;;6.20;99.90;;;;;;5018846;28;20425;-54
2024/02/27 00:13:19;;;;;;;31.33;28.03;;;6.20;99.90;;;;;;5018354;28;20187;-51
2024/02/27 00:15:45;;;;;;;28.53;25.63;;;6.20;99.90;;;;;;5018696;28;20263;-52
2024/02/27 00:18:16;;;;;;;30.70;26.30;;;6.10;99.90;;;;;;5017545;28;20721;-53
2024/02/27 00:20:42;;;;;;;30.08;25.85;;;6.20;99.90;;;;;;5018829;28;20659;-55
2024/02/27 00:23:07;;;;;;;30.73;27.43;;;6.10;99.90;;;;;;5017536;28;20179;-56
2024/02/27 00:25:33;;;;;;;28.77;25.67;;;6.10;15.30;;;;;;5017551;28;20775;-54
2024/02/27 00:27:59;;;;;;;28.73;25.60;;;6.10;13.60;;;;;;5021901;28;20194;-46
2024/02/27 00:30:24;;;;;;;27.33;24.63;;;6.10;13.30;;;;;;5021450;28;20442;-54
2024/02/27 00:32:52;;;;;;;28.30;25.30;;;6.10;28.10;;;;;;5021470;28;20194;-52
2024/02/27 00:35:18;;;;;;;29.25;24.48;;;6.00;99.90;;;;;;5021410;28;20208;-50
2024/02/27 00:37:44;;;;;;;27.00;24.00;;;6.00;99.90;;;;;;5020658;28;20194;-48
2024/02/27 00:40:11;;;;;;;27.53;24.50;;;6.00;99.90;;;;;;5022224;28;20424;-51
2024/02/27 00:42:37;;;;;;;28.10;25.20;;;6.00;99.90;;;;;;5020931;28;20213;-49
2024/02/27 00:45:03;;;;;;;32.17;26.50;;;5.90;99.90;;;;;;5022133;28;20182;-51
2024/02/27 00:47:28;;;;;;;30.10;25.50;;;5.90;99.90;;;;;;5022198;28;20193;-50
2024/02/27 00:49:54;;;;;;;28.00;24.87;;;5.90;99.90;;;;;;5021687;28;20624;-51
2024/02/27 00:52:19;;;;;;;28.93;25.83;;;5.90;99.90;;;;;;5020448;28;20186;-49
2024/02/27 00:54:45;;;;;;;31.47;24.97;;;5.90;99.90;;;;;;5021558;28;20186;-48
2024/02/27 00:57:11;;;;;;;30.20;26.00;;;5.90;99.90;;;;;;5021113;28;20186;-50
2024/02/27 00:59:36;;;;;;;28.87;25.50;;;5.90;99.90;;;;;;5020841;28;20225;-48
2024/02/27 01:02:02;;;;;;;29.10;25.50;;;5.90;99.90;;;;;;5020204;28;20206;-54
2024/02/27 01:04:28;;;;;;;27.75;24.65;;;5.90;99.90;;;;;;5019590;28;20280;-52
2024/02/27 01:06:55;;;;;;;32.30;26.40;;;5.90;99.90;;;;;;5021755;28;20277;-58
2024/02/27 01:09:20;;;;;;;29.60;25.67;;;6.00;99.90;;;;;;5021307;28;20521;-55
2024/02/27 01:11:46;;;;;;;30.33;25.33;;;6.00;99.90;;;;;;5021110;28;20197;-54
2024/02/27 01:14:12;;;;;;;28.60;25.50;;;6.00;99.90;;;;;;5020352;28;20570;-55
2024/02/27 01:16:38;;;;;;;29.90;25.15;;;6.10;99.90;;;;;;5021468;28;20833;-53
2024/02/27 01:19:04;;;;;;;30.03;25.73;;;6.20;99.90;;;;;;5020977;28;20239;-48
2024/02/27 01:21:29;;;;;;;28.30;24.57;;;6.20;99.90;;;;;;5021172;28;20186;-54
2024/02/27 01:23:55;;;;;;;28.70;24.70;;;6.20;99.90;;;;;;5020502;28;20892;-54
2024/02/27 01:26:21;;;;;;;28.67;25.60;;;6.10;99.90;;;;;;5019535;28;20190;-58
2024/02/27 01:28:46;;;;;;;29.00;25.03;;;6.20;99.90;;;;;;5019521;28;20186;-54
2024/02/27 01:31:12;;;;;;;27.23;24.30;;;6.10;99.90;;;;;;5020433;28;20232;-55
2024/02/27 01:33:38;;;;;;;31.80;26.00;;;6.10;99.90;;;;;;5021048;28;20222;-54
2024/02/27 01:36:04;;;;;;;28.42;25.02;;;6.10;99.90;;;;;;5021012;28;20220;-53
2024/02/27 01:38:30;;;;;;;30.33;24.60;;;6.20;99.90;;;;;;5019232;28;20218;-55
2024/02/27 01:40:55;;;;;;;29.03;25.80;;;6.20;99.90;;;;;;5019932;28;20425;-54
2024/02/27 01:43:22;;;;;;;31.77;24.43;;;6.20;99.90;;;;;;5019910;28;20260;-54
2024/02/27 01:46:08;;;;;;;28.20;25.15;;;6.30;99.90;;;;;;5020052;28;20182;-49
2024/02/27 01:48:34;;;;;;;32.53;25.73;;;6.40;99.90;;;;;;5018611;28;20182;-57
2024/02/27 01:51:00;;;;;;;31.33;25.83;;;6.40;99.90;;;;;;5020677;28;20416;-54
2024/02/27 01:53:26;;;;;;;29.65;26.05;;;6.40;99.90;;;;;;5020940;28;20495;-50
2024/02/27 01:55:52;;;;;;;30.60;26.80;;;6.40;99.90;;;;;;5018598;28;20186;-55
2024/02/27 01:58:18;;;;;;;29.10;25.10;;;6.50;99.90;;;;;;5019204;28;20579;-51
2024/02/27 02:00:44;;;;;;;30.40;27.10;;;6.50;99.90;;;;;;5019776;28;20229;-55
2024/02/27 02:03:11;;;;;;;33.53;27.60;;;6.60;99.90;;;;;;5020426;28;20452;-55
2024/02/27 02:05:37;;;;;;;31.97;26.33;;;6.60;99.90;;;;;;5020196;28;20417;-58
2024/02/27 02:08:03;;;;;;;32.83;26.10;;;6.70;99.90;;;;;;5019539;28;20923;-54
2024/02/27 02:10:29;;;;;;;31.87;26.97;;;6.70;99.90;;;;;;5019021;28;20273;-54
2024/02/27 02:12:55;;;;;;;32.60;27.50;;;6.70;99.90;;;;;;5019580;28;20425;-52
2024/02/27 02:15:22;;;;;;;30.33;27.20;;;6.80;99.90;;;;;;5020009;28;20772;-53
2024/02/27 02:17:47;;;;;;;30.10;25.87;;;6.80;99.90;;;;;;5019993;28;20480;-55
2024/02/27 02:20:17;;;;;;;31.57;26.57;;;6.80;99.90;;;;;;5020456;28;20417;-50
2024/02/27 02:22:43;;;;;;;31.67;28.05;;;6.80;99.90;;;;;;5019214;28;20656;-50
2024/02/27 02:25:11;;;;;;;32.90;27.73;;;6.80;99.90;;;;;;5017712;28;20182;-44
2024/02/27 02:27:41;;;;;;;34.00;28.60;;;6.80;99.90;;;;;;5020215;28;20185;-52
2024/02/27 02:30:10;;;;;;;32.20;28.07;;;6.90;99.90;;;;;;5019980;28;20413;-54
2024/02/27 02:32:35;;;;;;;31.33;27.70;;;6.80;99.90;;;;;;5020228;28;20409;-49
2024/02/27 02:35:01;;;;;;;37.60;27.70;;;6.80;99.90;;;;;;5019481;28;21048;-48
2024/02/27 02:37:27;;;;;;;29.00;25.90;;;6.80;99.90;;;;;;5019986;28;20178;-48
2024/02/27 02:39:53;;;;;;;31.70;26.70;;;6.90;99.90;;;;;;5017698;28;20451;-46
2024/02/27 02:42:18;;;;;;;33.37;26.33;;;6.90;99.90;;;;;;5018674;28;20935;-47
2024/02/27 02:44:44;;;;;;;32.07;27.63;;;6.90;99.90;;;;;;5018637;28;20191;-46
2024/02/27 02:47:10;;;;;;;31.17;27.47;;;6.90;99.90;;;;;;5017274;28;20193;-51
2024/02/27 02:49:35;;;;;;;31.70;26.30;;;6.90;99.90;;;;;;5018927;28;20260;-50
2024/02/27 02:52:01;;;;;;;30.90;26.37;;;6.90;99.90;;;;;;5019232;28;20284;-50
2024/02/27 02:54:26;;;;;;;33.60;26.00;;;7.00;99.90;;;;;;5019308;28;20190;-51
2024/02/27 02:56:52;;;;;;;32.10;26.70;;;7.00;99.90;;;;;;5017610;28;21046;-50
2024/02/27 02:59:17;;;;;;;35.27;27.03;;;7.10;99.90;;;;;;5017781;28;20288;-46
2024/02/27 03:01:43;;;;;;;30.77;26.70;;;7.10;99.90;;;;;;5019622;28;20348;-51
2024/02/27 03:04:09;;;;;;;29.13;25.90;;;7.00;99.90;;;;;;5019771;28;20187;-47
2024/02/27 03:06:35;;;;;;;30.90;25.90;;;7.10;99.90;;;;;;5017734;28;20540;-48
2024/02/27 03:09:00;;;;;;;29.73;26.53;;;7.10;99.90;;;;;;5017822;28;20451;-52
2024/02/27 03:11:26;;;;;;;32.30;27.27;;;7.20;99.90;;;;;;5018658;28;20228;-47
2024/02/27 03:13:51;;;;;;;32.40;27.07;;;7.20;99.90;;;;;;5018920;28;20526;-51
2024/02/27 03:16:17;;;;;;;30.47;26.20;;;7.20;99.90;;;;;;5017314;28;20236;-50
2024/02/27 03:18:43;;;;;;;29.83;26.60;;;7.20;99.90;;;;;;5019204;28;20356;-48
2024/02/27 03:21:08;;;;;;;30.03;25.80;;;7.20;99.90;;;;;;5019250;28;20193;-49
2024/02/27 03:23:34;;;;;;;31.67;28.07;;;7.20;99.90;;;;;;5015366;28;20355;-54
2024/02/27 03:25:59;;;;;;;29.07;25.63;;;7.30;99.90;;;;;;5017722;28;20190;-50
2024/02/27 03:28:25;;;;;;;29.83;26.33;;;7.30;99.90;;;;;;5018154;28;20781;-50
2024/02/27 03:30:50;;;;;;;30.20;25.30;;;7.20;99.90;;;;;;5018210;28;20198;-49
2024/02/27 03:33:16;;;;;;;29.90;26.70;;;7.20;99.90;;;;;;5018750;28;20197;-49
2024/02/27 03:35:42;;;;;;;34.93;26.47;;;7.30;99.90;;;;;;5018919;28;20194;-48
2024/02/27 03:38:08;;;;;;;30.80;26.43;;;7.30;99.90;;;;;;5019063;28;20284;-50
2024/02/27 03:40:34;;;;;;;33.90;26.77;;;7.30;99.90;;;;;;5018523;28;20201;-54
2024/02/27 03:42:59;;;;;;;30.43;27.23;;;7.30;99.90;;;;;;5019175;28;20472;-48
2024/02/27 03:45:25;;;;;;;33.30;27.57;;;7.30;99.90;;;;;;5018770;28;20190;-49
2024/02/27 03:47:50;;;;;;;31.70;26.27;;;7.30;99.90;;;;;;5016789;28;20194;-51
2024/02/27 03:50:16;;;;;;;38.17;28.93;;;7.30;99.90;;;;;;5018301;28;20195;-50
2024/02/27 03:52:42;;;;;;;31.13;27.77;;;7.40;99.90;;;;;;5017913;28;20270;-48
2024/02/27 03:55:08;;;;;;;38.07;28.63;;;7.40;99.90;;;;;;5018470;28;20190;-47
2024/02/27 03:57:34;;;;;;;33.13;27.40;;;7.30;99.90;;;;;;5018636;28;20850;-48
2024/02/27 03:59:59;;;;;;;33.80;27.70;;;7.20;99.90;;;;;;5017527;28;20584;-52
2024/02/27 04:02:25;;;;;;;33.20;28.57;;;7.30;99.90;;;;;;5023077;28;20187;-55
2024/02/27 04:04:51;;;;;;;30.07;26.80;;;7.20;99.90;;;;;;5022711;28;20297;-53
2024/02/27 04:07:17;;;;;;;32.00;27.03;;;7.20;1.00;;;;;;5020191;28;20252;-56
2024/02/27 04:09:42;;;;;;;33.40;26.47;;;7.20;27.30;;;;;;5022501;28;20421;-52
2024/02/27 04:12:08;;;;;;;32.60;27.40;;;7.20;99.90;;;;;;5022679;28;20201;-55
2024/02/27 04:14:33;;;;;;;32.60;27.30;;;7.10;99.90;;;;;;5022046;28;20693;-56
2024/02/27 04:17:00;;;;;;;31.47;26.97;;;7.20;99.90;;;;;;5020605;28;20190;-53
2024/02/27 04:19:25;;;;;;;35.97;27.60;;;7.20;99.90;;;;;;5022735;28;20210;-53
2024/02/27 04:21:51;;;;;;;34.43;27.70;;;7.10;99.90;;;;;;5020067;28;20447;-56
2024/02/27 04:24:16;;;;;;;32.73;26.43;;;7.20;99.90;;;;;;5020239;28;20190;-52
2024/02/27 04:26:42;;;;;;;34.40;28.53;;;7.20;99.90;;;;;;5021168;28;20232;-52
2024/02/27 04:29:08;;;;;;;30.43;27.20;;;7.20;99.90;;;;;;5021722;28;20225;-55
2024/02/27 04:31:34;;;;;;;32.47;26.23;;;7.20;99.90;;;;;;5021290;28;20452;-54
2024/02/27 04:34:00;;;;;;;32.10;28.00;;;7.10;99.90;;;;;;5021968;28;20692;-50
2024/02/27 04:36:26;;;;;;;31.53;27.27;;;7.20;99.90;;;;;;5020623;28;21145;-52
2024/02/27 04:38:51;;;;;;;34.10;28.30;;;7.20;99.90;;;;;;5021195;28;20218;-59
2024/02/27 04:41:17;;;;;;;37.20;27.73;;;7.20;99.90;;;;;;5020831;28;20193;-55
2024/02/27 04:43:42;;;;;;;35.80;27.50;;;7.20;99.90;;;;;;5020667;28;20269;-51
2024/02/27 04:46:08;;;;;;;34.60;28.00;;;7.20;99.90;;;;;;5021156;28;20201;-56
2024/02/27 04:48:34;;;;;;;35.70;29.80;;;7.20;99.90;;;;;;5022079;28;20681;-49
2024/02/27 04:51:00;;;;;;;36.00;28.03;;;7.20;99.90;;;;;;5020204;28;20607;-50
2024/02/27 04:53:25;;;;;;;39.50;28.47;;;7.20;99.90;;;;;;5019877;28;20923;-51
2024/02/27 04:55:51;;;;;;;36.90;29.87;;;7.20;99.90;;;;;;5019250;28;20191;-48
2024/02/27 04:58:16;;;;;;;38.63;28.80;;;7.20;99.90;;;;;;5020465;28;20707;-45
2024/02/27 05:00:42;;;;;;;34.03;28.17;;;7.20;99.90;;;;;;5021843;28;20185;-50
2024/02/27 05:03:08;;;;;;;37.00;28.57;;;7.20;99.90;;;;;;5020009;28;20193;-46
2024/02/27 05:05:36;;;;;;;44.40;28.27;;;7.20;99.90;;;;;;5021628;28;20633;-45
2024/02/27 05:08:02;;;;;;;39.90;26.20;;;7.20;99.90;;;;;;5021104;28;20191;-53
2024/02/27 05:10:27;;;;;;;40.43;28.30;;;7.20;99.90;;;;;;5022318;28;21059;-48
2024/02/27 05:12:53;;;;;;;42.70;29.40;;;7.20;99.90;;;;;;5018963;28;20230;-48
2024/02/27 05:15:18;;;;;;;38.40;27.87;;;7.20;99.90;;;;;;5020005;28;20194;-46
2024/02/27 05:17:44;;;;;;;41.50;30.30;;;7.20;99.90;;;;;;5020432;28;20273;-45
2024/02/27 05:20:12;;;;;;;38.70;27.80;;;7.20;99.90;;;;;;5021579;28;20677;-46
2024/02/27 05:22:37;;;;;;;43.80;26.00;;;7.20;99.90;;;;;;5019838;28;20214;-51
2024/02/27 05:25:03;;;;;;;39.70;27.90;;;7.10;99.90;;;;;;5017876;28;20920;-51
2024/02/27 05:27:29;;;;;;;38.60;28.50;;;7.10;99.90;;;;;;5017825;28;20228;-52
2024/02/27 05:29:55;;;;;;;38.90;27.70;;;7.10;99.90;;;;;;5019895;28;20217;-48
2024/02/27 05:32:21;;;;;;;40.57;28.60;;;7.10;99.90;;;;;;5021470;28;20711;-47
2024/02/27 05:34:46;;;;;;;40.93;29.30;;;7.10;99.90;;;;;;5021036;28;20492;-47
2024/02/27 05:37:12;;;;;;;42.47;29.33;;;7.10;99.90;;;;;;5021507;28;20752;-50
2024/02/27 05:39:37;;;;;;;42.10;29.13;;;7.00;99.90;;;;;;5019396;28;20256;-52
2024/02/27 05:42:03;;;;;;;39.00;27.53;;;7.00;99.90;;;;;;5021165;28;20676;-50
2024/02/27 05:44:29;;;;;;;42.70;30.40;;;7.00;99.90;;;;;;5019617;28;20282;-51
2024/02/27 05:46:54;;;;;;;43.70;29.90;;;7.10;99.90;;;;;;5019214;28;20676;-48
2024/02/27 05:49:20;;;;;;;41.90;27.57;;;7.00;99.90;;;;;;5017618;28;20597;-48
2024/02/27 05:51:46;;;;;;;41.90;30.07;;;7.00;99.90;;;;;;5019627;28;20252;-46
2024/02/27 05:54:11;;;;;;;38.50;29.20;;;7.00;99.90;;;;;;5020611;28;20794;-51
2024/02/27 05:56:37;;;;;;;43.60;28.97;;;7.00;99.90;;;;;;5019763;28;20186;-47
2024/02/27 05:59:02;;;;;;;44.70;29.00;;;6.90;99.90;;;;;;5018841;28;20206;-49
2024/02/27 06:01:28;;;;;;;43.70;30.73;;;6.80;99.90;;;;;;5019511;28;20183;-50
2024/02/27 06:03:54;;;;;;;41.10;28.97;;;6.80;99.90;;;;;;5020169;28;20195;-49
2024/02/27 06:06:19;;;;;;;43.70;30.10;;;6.70;99.90;;;;;;5020206;28;20533;-46
2024/02/27 06:08:45;;;;;;;41.03;29.20;;;6.70;99.90;;;;;;5019139;28;20186;-46
2024/02/27 06:11:11;;;;;;;40.50;28.07;;;6.70;99.90;;;;;;5018938;28;20190;-51
2024/02/27 06:13:36;;;;;;;40.93;28.93;;;6.80;99.90;;;;;;5019221;28;20187;-47
2024/02/27 06:16:02;;;;;;;36.60;29.17;;;6.80;99.90;;;;;;5019648;28;20610;-47
2024/02/27 06:18:27;;;;;;;40.70;29.00;;;6.70;99.90;;;;;;5019677;28;20614;-45
2024/02/27 06:23:37;;;;;;;44.10;28.50;;;6.80;99.90;;;;;;5019942;28;20188;-48
2024/02/27 06:26:03;;;;;;;43.63;29.27;;;6.80;99.90;;;;;;5020260;28;21118;-50
2024/02/27 06:28:29;;;;;;;40.33;29.50;;;6.80;99.90;;;;;;5019416;28;20191;-49
2024/02/27 06:30:54;;;;;;;42.20;31.20;;;6.90;99.90;;;;;;5018874;28;20265;-49
2024/02/27 06:33:20;;;;;;;43.83;30.60;;;6.90;99.90;;;;;;5019755;28;20200;-50
2024/02/27 06:35:46;;;;;;;43.37;29.10;;;6.90;99.90;;;;;;5019238;28;20190;-50
2024/02/27 06:38:12;;;;;;;42.33;30.10;;;6.90;99.90;;;;;;5018348;28;20671;-47
2024/02/27 06:40:37;;;;;;;41.93;29.60;;;6.90;99.90;;;;;;5019601;28;20271;-48
2024/02/27 06:43:03;;;;;;;38.93;29.07;;;6.90;91.50;;;;;;5019630;28;20269;-46
2024/02/27 06:45:29;;;;;;;41.57;27.23;;;7.00;99.90;;;;;;5019746;28;20610;-50
2024/02/27 06:47:54;;;;;;;38.53;28.17;;;7.00;99.90;;;;;;5018325;28;20269;-47
2024/02/27 06:50:20;;;;;;;40.53;28.30;;;7.00;99.90;;;;;;5019072;28;20594;-54
2024/02/27 06:52:45;;;;;;;39.50;27.67;;;7.00;99.90;;;;;;5019688;28;20381;-47
2024/02/27 06:55:11;;;;;;;38.90;27.80;;;7.00;99.90;;;;;;5018743;28;20688;-47
2024/02/27 06:57:36;;;;;;;42.50;28.67;;;7.10;99.90;;;;;;5018322;28;20198;-45
2024/02/27 07:00:07;;;;;;;34.50;26.07;;;7.10;16.50;;;;;;5019763;28;20256;-48
2024/02/27 07:02:33;;;;;;;37.80;26.77;;;7.20;99.90;;;;;;5019711;28;20182;-45
2024/02/27 07:04:59;;;;;;;38.73;26.33;;;7.10;99.90;;;;;;5017837;28;21140;-53
2024/02/27 07:07:24;;;;;;;40.90;27.50;;;7.10;99.90;;;;;;5018843;28;20532;-51
2024/02/27 07:09:50;;;;;;;34.60;25.87;;;7.20;99.90;;;;;;5019333;28;20182;-47
2024/02/27 07:12:15;;;;;;;37.10;25.63;;;7.10;99.90;;;;;;5019672;28;20632;-52
2024/02/27 07:14:42;;;;;;;56.27;29.63;;;7.10;99.90;;;;;;5019172;28;20245;-50
2024/02/27 07:17:09;;;;;;;39.10;25.80;;;7.10;99.90;;;;;;5018574;28;20197;-48
2024/02/27 07:19:35;;;;;;;39.30;27.00;;;7.10;99.90;;;;;;5016671;28;20847;-47
2024/02/27 07:22:00;;;;;;;39.43;26.80;;;7.10;99.90;;;;;;5018436;28;20934;-53
2024/02/27 07:24:26;;;;;;;37.10;26.93;;;7.10;99.90;;;;;;5016856;28;20445;-49
2024/02/27 07:26:52;;;;;;;36.73;27.13;;;7.10;99.90;;;;;;5019376;28;20202;-51
2024/02/27 07:29:17;;;;;;;41.10;28.13;;;7.10;99.90;;;;;;5019287;28;20194;-45
2024/02/27 07:31:44;;;;;;;39.90;28.23;;;7.10;99.90;;;;;;5019026;28;20193;-51
2024/02/27 07:34:11;;;;;;;39.70;28.53;;;7.20;99.90;;;;;;5018018;28;20309;-48
2024/02/27 07:36:37;;;;;;;47.33;29.77;;;7.20;99.90;;;;;;5021407;28;20441;-48
2024/02/27 07:39:02;;;;;;;36.60;28.53;;;7.20;99.90;;;;;;5022408;28;20500;-49
2024/02/27 07:41:28;;;;;;;41.27;31.37;;;7.30;99.90;;;;;;5021422;28;20186;-44
2024/02/27 07:43:53;;;;;;;37.93;27.90;;;7.20;1.00;;;;;;5023348;28;20648;-50
2024/02/27 07:46:19;;;;;;;36.33;27.87;;;7.30;99.90;;;;;;5022600;28;20179;-48
2024/02/27 07:48:45;;;;;;;38.43;29.20;;;7.30;99.90;;;;;;5023094;28;20348;-53
2024/02/27 07:51:30;;;;;;;37.90;28.30;;;7.30;99.90;;;;;;5022843;28;20190;-59
2024/02/27 07:53:57;;;;;;;38.40;29.27;;;7.30;99.90;;;;;;5022980;28;20622;-53
2024/02/27 07:56:22;;;;;;;36.60;27.60;;;7.30;99.90;;;;;;5021519;28;20429;-56
2024/02/27 07:58:48;;;;;;;37.00;27.70;;;7.30;99.90;;;;;;5022735;28;20464;-51
2024/02/27 08:01:14;;;;;;;35.57;29.10;;;7.40;99.90;;;;;;5020896;28;20256;-57
2024/02/27 08:03:40;;;;;;;35.87;27.30;;;7.30;99.90;;;;;;5022306;28;20178;-53
2024/02/27 08:06:08;;;;;;;37.07;28.70;;;7.40;99.90;;;;;;5022672;28;20410;-54
2024/02/27 08:08:34;;;;;;;41.33;28.00;;;7.30;99.90;;;;;;5011105;28;20285;-50
2024/02/27 08:11:02;;;;;;;34.40;28.67;;;7.30;99.90;;;;;;5011061;28;20512;-51
2024/02/27 08:13:27;;;;;;;41.80;29.30;;;7.30;99.90;;;;;;5022733;28;20462;-53
2024/02/27 08:15:53;;;;;;;39.07;30.40;;;7.20;99.90;;;;;;5022856;28;20429;-49
2024/02/27 08:18:19;;;;;;;41.90;29.90;;;7.20;99.90;;;;;;5020398;28;20242;-46
2024/02/27 08:20:47;;;;;;;39.87;27.70;;;7.20;99.90;;;;;;5022724;28;20178;-45
2024/02/27 08:23:13;;;;;;;44.30;29.07;;;7.20;99.90;;;;;;5022553;28;20171;-51
2024/02/27 08:25:39;;;;;;;41.03;28.97;;;7.20;99.90;;;;;;5022619;28;20432;-48
2024/02/27 08:28:05;;;;;;;40.50;29.03;;;7.20;99.90;;;;;;5020151;28;20273;-47
2024/02/27 08:30:31;;;;;;;37.70;28.43;;;7.20;99.90;;;;;;5020730;28;20400;-51
2024/02/27 08:32:57;;;;;;;48.70;31.17;;;7.30;99.90;;;;;;5022359;28;20814;-47
2024/02/27 08:35:23;;;;;;;52.80;30.10;;;7.30;99.90;;;;;;5022125;28;20241;-46
2024/02/27 08:37:49;;;;;;;41.40;28.87;;;7.20;99.90;;;;;;5021078;28;20834;-46
2024/02/27 08:40:14;;;;;;;43.93;31.50;;;7.20;99.90;;;;;;5022104;28;20273;-47
2024/02/27 08:42:40;;;;;;;48.87;30.30;;;7.20;99.90;;;;;;5022241;28;20991;-51
2024/02/27 08:45:08;;;;;;;48.43;29.30;;;7.20;99.90;;;;;;5021206;28;21009;-46
2024/02/27 08:47:34;;;;;;;50.17;29.80;;;7.20;99.90;;;;;;5020696;28;20338;-48
2024/02/27 08:49:59;;;;;;;48.33;31.90;;;7.10;99.90;;;;;;5022045;28;20732;-58
2024/02/27 08:52:25;;;;;;;50.80;30.67;;;7.10;99.90;;;;;;5021718;28;20540;-49
2024/02/27 08:54:50;;;;;;;46.53;30.40;;;7.10;99.90;;;;;;5021355;28;20209;-54
2024/02/27 08:57:16;;;;;;;45.83;29.67;;;7.10;99.90;;;;;;5021259;28;20277;-50
2024/02/27 08:59:44;;;;;;;51.10;31.80;;;7.00;99.90;;;;;;5020564;28;20217;-52
2024/02/27 09:02:09;;;;;;;51.43;30.60;;;7.10;99.90;;;;;;5021027;28;20210;-51
2024/02/27 09:04:35;;;;;;;44.67;28.13;;;7.10;99.90;;;;;;5021715;28;20421;-51
2024/02/27 09:07:01;;;;;;;44.87;30.87;;;7.10;99.90;;;;;;5020069;28;20257;-54
2024/02/27 09:09:27;;;;;;;45.80;28.70;;;7.00;99.90;;;;;;5020339;28;20468;-52
2024/02/27 09:11:52;;;;;;;48.47;31.80;;;7.00;99.90;;;;;;5017449;28;20269;-50
2024/02/27 09:14:18;;;;;;;48.53;29.40;;;7.00;99.90;;;;;;5021837;28;20508;-50
2024/02/27 09:16:44;;;;;;;49.27;30.20;;;7.10;99.90;;;;;;5020265;28;20499;-50
2024/02/27 09:19:10;;;;;;;51.23;32.07;;;7.10;99.90;;;;;;5021191;28;20609;-51
2024/02/27 09:21:35;;;;;;;49.33;33.40;;;7.10;99.90;;;;;;5020084;28;20467;-51
2024/02/27 09:24:01;;;;;;;44.93;29.57;;;7.10;99.90;;;;;;5020260;28;20178;-52
2024/02/27 09:26:26;;;;;;;50.40;30.87;;;7.10;99.90;;;;;;5019450;28;20195;-55
2024/02/27 09:28:52;;;;;;;47.80;32.47;;;7.10;99.90;;;;;;5021383;28;20549;-53
2024/02/27 09:31:18;;;;;;;49.23;30.27;;;7.10;99.90;;;;;;5021255;28;20190;-51
2024/02/27 09:33:44;;;;;;;48.33;30.10;;;7.20;99.90;;;;;;5021472;28;20663;-53
2024/02/27 09:36:09;;;;;;;53.87;31.37;;;7.20;99.90;;;;;;5018404;28;20202;-53
2024/02/27 09:38:35;;;;;;;44.20;28.37;;;7.30;99.90;;;;;;5020564;28;20221;-53
2024/02/27 09:41:01;;;;;;;55.67;33.60;;;7.30;99.90;;;;;;5020077;28;20295;-51
2024/02/27 09:43:30;;;;;;;44.90;30.20;;;7.30;99.90;;;;;;5021218;28;20194;-51
2024/02/27 09:45:57;;;;;;;41.50;30.10;;;7.40;99.90;;;;;;5019663;28;20441;-52
2024/02/27 09:48:28;;;;;;;51.53;31.33;;;7.30;99.90;;;;;;5020403;28;20490;-50
2024/02/27 09:50:55;;;;;;;46.63;29.77;;;7.20;99.90;;;;;;5021150;28;20417;-55
2024/02/27 09:53:22;;;;;;;42.73;27.93;;;7.20;99.90;;;;;;5020573;28;20424;-51
2024/02/27 09:55:48;;;;;;;47.57;30.63;;;7.20;99.90;;;;;;5019350;28;20437;-50
2024/02/27 09:58:16;;;;;;;42.73;30.63;;;7.20;99.90;;;;;;5019915;28;20518;-53
2024/02/27 10:00:41;;;;;;;44.63;29.17;;;7.10;99.90;;;;;;5020780;28;20747;-53
2024/02/27 10:03:08;;;;;;;40.93;28.40;;;7.10;99.90;;;;;;5020435;28;20896;-53
2024/02/27 10:05:38;;;;;;;48.37;30.23;;;7.20;99.90;;;;;;5019455;28;20186;-54
2024/02/27 10:08:07;;;;;;;46.77;31.00;;;7.10;99.90;;;;;;5020830;28;20417;-56
2024/02/27 10:10:33;;;;;;;53.37;30.30;;;7.10;99.90;;;;;;5019447;28;20887;-55
2024/02/27 10:12:59;;;;;;;38.83;28.47;;;7.10;99.90;;;;;;5020878;28;20487;-55
2024/02/27 10:15:25;;;;;;;50.20;29.47;;;7.10;99.90;;;;;;5019097;28;20429;-54
2024/02/27 10:17:52;;;;;;;44.13;28.93;;;7.10;99.90;;;;;;5019876;28;20531;-56
2024/02/27 10:20:20;;;;;;;48.03;29.67;;;7.10;99.90;;;;;;5020077;28;21342;-56
2024/02/27 10:22:45;;;;;;;44.97;30.70;;;7.10;99.90;;;;;;5019694;28;20445;-56
2024/02/27 10:25:14;;;;;;;48.43;31.50;;;7.10;99.90;;;;;;5019258;28;20889;-57
2024/02/27 10:27:42;;;;;;;54.03;31.57;;;7.00;99.90;;;;;;5018286;28;20289;-56
2024/02/27 10:30:10;;;;;;;48.20;30.43;;;7.00;99.90;;;;;;5015289;28;20452;-53
2024/02/27 10:32:36;;;;;;;42.13;31.13;;;7.00;99.90;;;;;;5020024;28;20745;-56
2024/02/27 10:35:03;;;;;;;44.80;29.17;;;7.00;99.90;;;;;;5018312;28;20428;-56
2024/02/27 10:37:31;;;;;;;50.40;30.60;;;7.10;99.90;;;;;;5019551;28;20257;-51
2024/02/27 10:39:59;;;;;;;49.90;29.77;;;7.10;99.90;;;;;;5018939;28;20986;-56
2024/02/27 10:42:29;;;;;;;52.43;32.23;;;7.10;99.90;;;;;;5019293;28;20437;-53
2024/02/27 10:44:56;;;;;;;48.03;31.20;;;7.20;99.90;;;;;;5019294;28;20433;-56
2024/02/27 10:47:25;;;;;;;49.53;32.20;;;7.10;99.90;;;;;;5019775;28;20410;-55
2024/02/27 10:49:51;;;;;;;52.53;31.80;;;7.20;99.90;;;;;;5018275;28;20437;-54
2024/02/27 10:52:19;;;;;;;54.03;30.80;;;7.20;99.90;;;;;;5019671;28;20512;-53
2024/02/27 10:54:45;;;;;;;58.67;31.40;;;7.10;99.90;;;;;;5017667;28;20445;-51
2024/02/27 10:57:13;;;;;;;52.77;32.33;;;7.00;99.90;;;;;;5019947;28;20516;-55
2024/02/27 10:59:39;;;;;;;59.55;30.65;;;7.00;99.90;;;;;;5018626;28;20457;-51
2024/02/27 11:02:14;;;;;;;48.57;28.63;;;7.00;99.90;;;;;;5019592;28;20186;-53
2024/02/27 11:04:41;;;;;;;58.77;32.27;;;6.90;99.90;;;;;;5018154;28;20719;-53
2024/02/27 11:07:08;;;;;;;49.90;31.37;;;7.00;99.90;;;;;;5019195;28;20412;-54
2024/02/27 11:09:34;;;;;;;54.90;32.27;;;7.00;99.90;;;;;;5017489;28;20445;-51
2024/02/27 11:12:06;;;;;;;50.00;31.53;;;7.00;99.90;;;;;;5019664;28;20475;-49
2024/02/27 11:14:37;;;;;;;55.33;31.53;;;7.10;99.90;;;;;;5016338;28;20977;-55
2024/02/27 11:17:11;;;;;;;49.17;31.47;;;7.20;99.90;;;;;;5019546;28;20425;-54
2024/02/27 11:19:45;;;;;;;51.00;31.80;;;7.30;99.90;;;;;;5018570;28;20565;-48
2024/02/27 11:22:11;;;;;;;51.90;31.83;;;7.40;99.90;;;;;;5018969;28;20471;-50
2024/02/27 11:24:38;;;;;;;50.67;31.70;;;7.40;99.90;;;;;;5015897;28;20842;-49
2024/02/27 11:27:04;;;;;;;47.40;29.50;;;7.50;99.90;;;;;;5018390;28;20950;-53
2024/02/27 11:29:31;;;;;;;47.63;29.43;;;7.50;99.90;;;;;;5019635;28;20425;-51
2024/02/27 11:31:57;;;;;;;53.57;32.20;;;7.60;99.90;;;;;;5017927;28;20675;-52
2024/02/27 11:34:26;;;;;;;48.90;28.33;;;7.60;99.90;;;;;;5019176;28;20437;-49
2024/02/27 11:37:14;;;;;;;44.63;29.70;;;7.70;99.90;;;;;;5018447;28;20919;-51
2024/02/27 11:39:39;;;;;;;59.80;35.97;;;7.60;99.90;;;;;;5017605;28;20530;-47
2024/02/27 11:42:07;;;;;;;45.00;28.27;;;7.60;99.90;;;;;;5008964;28;20437;-48
2024/02/27 11:45:02;;;;;;;40.20;28.57;;;7.60;99.90;;;;;;5017327;28;20218;-48
2024/02/27 11:47:41;;;;;;;42.23;29.70;;;7.70;99.90;;;;;;5019069;28;20919;-48
2024/02/27 11:50:36;;;;;;;49.77;30.90;;;7.70;99.90;;;;;;5017622;28;20518;-51
2024/02/27 11:53:17;;;;;;;45.07;28.27;;;7.70;99.90;;;;;;5014671;28;20562;-49
2024/02/27 11:55:44;;;;;;;47.57;27.90;;;7.70;99.90;;;;;;5018127;28;20445;-51
2024/02/27 11:58:10;;;;;;;50.70;28.90;;;7.70;99.90;;;;;;5019270;28;20433;-49
2024/02/27 12:00:36;;;;;;;51.37;30.63;;;7.60;99.90;;;;;;5017703;28;20656;-48
2024/02/27 12:03:02;;;;;;;44.53;28.63;;;7.50;99.90;;;;;;5018791;28;21173;-48
2024/02/27 12:05:28;;;;;;;42.90;29.43;;;7.50;99.90;;;;;;5019430;28;20656;-51
2024/02/27 12:08:03;;;;;;;49.30;30.03;;;7.60;99.90;;;;;;5019143;28;20655;-53
2024/02/27 12:10:29;;;;;;;43.03;30.13;;;7.60;99.90;;;;;;5018134;28;20220;-49
2024/02/27 12:12:55;;;;;;;41.20;28.90;;;7.40;99.90;;;;;;5018472;28;20437;-49
2024/02/27 12:15:21;;;;;;;41.03;29.20;;;7.40;99.90;;;;;;5018204;28;20201;-49
2024/02/27 12:17:47;;;;;;;39.37;29.67;;;7.50;99.90;;;;;;5018662;28;20465;-53
2024/02/27 12:20:14;;;;;;;41.37;28.93;;;7.50;99.90;;;;;;5018140;28;20598;-49
2024/02/27 12:22:42;;;;;;;40.87;28.00;;;7.50;99.90;;;;;;5018302;28;20447;-49
2024/02/27 12:25:08;;;;;;;45.10;26.70;;;7.50;99.90;;;;;;5022490;28;20431;-52
2024/02/27 12:27:35;;;;;;;43.50;29.00;;;7.50;99.90;;;;;;5021411;28;20436;-47
2024/02/27 12:30:10;;;;;;;46.83;28.13;;;7.50;99.90;;;;;;5022239;28;20451;-48
2024/02/27 12:32:42;;;;;;;40.00;27.07;;;7.40;99.90;;;;;;5022012;28;20466;-48
2024/02/27 12:35:09;;;;;;;45.53;28.70;;;7.40;99.90;;;;;;5008553;28;20559;-52